Time;durP1;ratioP1;P1;durP2;ratioP2;P2;SDS_P1;SDS_P2;PMS_P1;PMS_P2;Temp;Humidity;BMP_temperature;BMP_pressure;BME280_temperature;BME280_humidity;BME280_pressure;Samples;Min_cycle;Max_cycle;Signal;HPM_P1;HPM_P2
2022/01/15 00:00:42;;;;;;;1.35;0.80;;;2.40;99.90;;;;;;5092219;28;20028;-68
2022/01/15 00:03:09;;;;;;;0.75;0.70;;;2.30;99.90;;;;;;5091676;28;20557;-67
2022/01/15 00:05:35;;;;;;;0.63;0.63;;;2.40;99.90;;;;;;5092082;28;20074;-67
2022/01/15 00:08:03;;;;;;;1.27;0.70;;;2.30;99.90;;;;;;5091680;28;20036;-67
2022/01/15 00:10:29;;;;;;;2.65;0.70;;;2.30;99.90;;;;;;5092082;28;20031;-67
2022/01/15 00:12:57;;;;;;;3.03;0.90;;;2.30;99.90;;;;;;5091625;28;20035;-67
2022/01/15 00:15:33;;;;;;;1.58;0.70;;;2.30;99.90;;;;;;5091798;28;20021;-68
2022/01/15 00:18:04;;;;;;;3.10;0.80;;;2.30;99.90;;;;;;5091627;28;20482;-68
2022/01/15 00:20:30;;;;;;;2.30;1.08;;;2.30;99.90;;;;;;5091862;28;20099;-67
2022/01/15 00:22:58;;;;;;;2.67;0.77;;;2.20;99.90;;;;;;5091488;28;20104;-67
2022/01/15 00:25:25;;;;;;;1.23;0.68;;;2.20;99.90;;;;;;5091975;28;20024;-67
2022/01/15 00:27:52;;;;;;;2.92;0.82;;;2.20;99.90;;;;;;5091654;28;20032;-67
2022/01/15 00:30:19;;;;;;;1.83;0.73;;;2.20;99.90;;;;;;5095035;28;20020;-67
2022/01/15 00:32:46;;;;;;;0.93;0.75;;;2.20;99.90;;;;;;5095864;28;20102;-67
2022/01/15 00:35:13;;;;;;;1.17;0.70;;;2.20;99.90;;;;;;5095662;28;20028;-67
2022/01/15 00:37:40;;;;;;;0.70;0.70;;;2.20;99.90;;;;;;5095291;28;20367;-67
2022/01/15 00:40:09;;;;;;;1.80;0.73;;;2.10;99.90;;;;;;5095645;28;20023;-67
2022/01/15 00:42:37;;;;;;;3.90;0.80;;;2.10;99.90;;;;;;5095346;28;20115;-67
2022/01/15 00:45:05;;;;;;;0.95;0.70;;;2.10;99.90;;;;;;5095269;28;20103;-67
2022/01/15 00:47:31;;;;;;;2.30;0.70;;;2.10;99.90;;;;;;5095061;28;20048;-67
2022/01/15 00:50:01;;;;;;;1.48;1.00;;;2.10;99.90;;;;;;5095200;28;20085;-67
2022/01/15 00:52:27;;;;;;;1.00;0.80;;;2.10;99.90;;;;;;5095245;28;20032;-67
2022/01/15 00:54:54;;;;;;;1.02;0.90;;;2.10;99.90;;;;;;5095377;28;20418;-67
2022/01/15 00:57:20;;;;;;;1.73;0.88;;;2.00;99.90;;;;;;5095184;28;20024;-67
2022/01/15 00:59:45;;;;;;;0.65;0.60;;;2.00;99.90;;;;;;5095339;28;20047;-67
2022/01/15 01:02:11;;;;;;;1.20;0.60;;;2.00;99.90;;;;;;5094885;28;20466;-67
2022/01/15 01:04:37;;;;;;;2.45;0.65;;;2.00;99.90;;;;;;5094867;28;20081;-67
2022/01/15 01:07:03;;;;;;;4.22;1.02;;;1.90;99.90;;;;;;5094883;28;20039;-67
2022/01/15 01:09:45;;;;;;;0.82;0.82;;;2.00;99.90;;;;;;5094867;28;20531;-67
2022/01/15 01:20:25;;;;;;;2.08;0.80;;;1.90;99.90;;;;;;5094880;28;20514;-69
2022/01/15 01:22:56;;;;;;;1.50;0.70;;;1.90;99.90;;;;;;5094506;28;20032;-68
2022/01/15 01:25:27;;;;;;;1.00;0.50;;;1.90;99.90;;;;;;5094554;28;20478;-68
2022/01/15 01:27:54;;;;;;;0.88;0.63;;;1.90;99.90;;;;;;5094339;28;20032;-68
2022/01/15 01:30:28;;;;;;;1.23;0.73;;;1.90;99.90;;;;;;5093227;28;20024;-68
2022/01/15 01:38:30;;;;;;;1.58;0.75;;;1.80;99.90;;;;;;5063732;28;20134;-69
2022/01/15 01:40:58;;;;;;;2.25;0.80;;;1.80;99.90;;;;;;5097359;28;20054;-69
2022/01/15 01:46:08;;;;;;;1.23;0.65;;;1.80;99.90;;;;;;5094279;28;20040;-69
2022/01/15 01:48:34;;;;;;;0.77;0.70;;;1.80;99.90;;;;;;5094142;28;20396;-69
2022/01/15 01:50:59;;;;;;;0.90;0.73;;;1.70;99.90;;;;;;5094275;28;20027;-69
2022/01/15 01:53:25;;;;;;;1.52;0.70;;;1.70;99.90;;;;;;5094302;28;20027;-69
2022/01/15 01:55:51;;;;;;;1.17;0.70;;;1.70;99.90;;;;;;5093968;28;20515;-68
2022/01/15 01:58:17;;;;;;;2.47;0.82;;;1.70;99.90;;;;;;5093724;28;20024;-69
2022/01/15 02:00:42;;;;;;;2.20;0.82;;;1.70;99.90;;;;;;5093964;28;20028;-68
2022/01/15 02:03:08;;;;;;;3.47;0.90;;;1.70;99.90;;;;;;5093944;28;20055;-69
2022/01/15 02:05:34;;;;;;;2.53;0.85;;;1.70;99.90;;;;;;5094147;28;20592;-69
2022/01/15 02:08:00;;;;;;;1.75;0.70;;;1.60;99.90;;;;;;5093794;28;20032;-68
2022/01/15 02:10:26;;;;;;;2.63;0.73;;;1.60;99.90;;;;;;5094143;28;20016;-69
2022/01/15 02:12:54;;;;;;;1.75;0.80;;;1.50;99.90;;;;;;5094024;28;20062;-69
2022/01/15 02:15:22;;;;;;;2.70;0.80;;;1.50;99.90;;;;;;5093998;28;20035;-70
2022/01/15 02:17:49;;;;;;;0.70;0.70;;;1.50;99.90;;;;;;5093718;28;20024;-70
2022/01/15 02:54:44;;;;;;;2.00;0.52;;;1.30;99.90;;;;;;5091958;28;20441;-69
2022/01/15 02:57:10;;;;;;;5.13;1.00;;;1.30;99.90;;;;;;5093515;28;20048;-69
2022/01/15 02:59:35;;;;;;;2.88;0.80;;;1.20;99.90;;;;;;5093052;28;20030;-69
2022/01/15 03:02:01;;;;;;;3.67;0.85;;;1.20;99.90;;;;;;5092892;28;20040;-68
2022/01/15 03:38:07;;;;;;;5.35;1.00;;;1.00;99.50;;;;;;5717634;22;20049;-69
2022/01/15 03:40:34;;;;;;;4.28;1.00;;;1.00;99.40;;;;;;5052206;28;20104;-70
2022/01/15 03:43:00;;;;;;;1.55;1.10;;;0.90;99.40;;;;;;5051436;28;20021;-70
2022/01/15 03:45:26;;;;;;;4.22;1.02;;;1.00;99.00;;;;;;5051787;28;20021;-70
2022/01/15 03:47:52;;;;;;;3.08;0.98;;;1.00;98.90;;;;;;5051494;28;20121;-71
2022/01/15 03:50:19;;;;;;;2.22;0.82;;;0.90;98.70;;;;;;5051868;28;20017;-71
2022/01/15 03:52:45;;;;;;;3.08;1.20;;;0.90;98.60;;;;;;5033911;28;20029;-71
2022/01/15 03:55:13;;;;;;;3.55;1.05;;;0.90;98.80;;;;;;5051811;28;20029;-71
2022/01/15 03:57:39;;;;;;;1.25;0.73;;;0.80;98.70;;;;;;5052076;28;20411;-71
2022/01/15 04:00:12;;;;;;;2.10;0.90;;;0.80;98.70;;;;;;5051810;28;20105;-70
2022/01/15 04:02:38;;;;;;;2.92;1.20;;;0.80;98.80;;;;;;5052392;28;20033;-69
2022/01/15 04:05:04;;;;;;;1.30;0.90;;;0.80;98.70;;;;;;5055785;28;20031;-70
2022/01/15 04:07:29;;;;;;;1.90;1.13;;;0.80;98.80;;;;;;5054934;28;20580;-70
2022/01/15 04:09:55;;;;;;;6.07;1.30;;;0.80;99.00;;;;;;5055623;28;20021;-69
2022/01/15 04:12:20;;;;;;;2.75;0.80;;;0.70;98.90;;;;;;5055756;28;20028;-69
2022/01/15 04:14:46;;;;;;;4.80;1.00;;;0.70;99.30;;;;;;5055512;28;20025;-70
2022/01/15 04:17:12;;;;;;;2.28;0.88;;;0.70;99.30;;;;;;5056004;28;20059;-69
2022/01/15 04:19:40;;;;;;;3.38;1.10;;;0.70;99.60;;;;;;5055902;28;20025;-69
2022/01/15 04:22:06;;;;;;;1.63;1.25;;;0.60;99.70;;;;;;5055454;28;20029;-70
2022/01/15 04:24:32;;;;;;;4.47;1.20;;;0.60;99.90;;;;;;5055494;28;20029;-70
2022/01/15 04:26:57;;;;;;;4.18;1.00;;;0.60;99.90;;;;;;5055412;28;20037;-70
2022/01/15 04:29:23;;;;;;;2.65;1.10;;;0.60;99.90;;;;;;5055811;28;20031;-70
2022/01/15 04:31:51;;;;;;;2.15;1.10;;;0.60;99.90;;;;;;5055770;28;20040;-70
2022/01/15 04:34:21;;;;;;;4.10;1.13;;;0.60;99.90;;;;;;5055139;28;20032;-70
2022/01/15 04:36:48;;;;;;;5.32;1.10;;;0.50;99.90;;;;;;5055421;28;20029;-70
2022/01/15 04:39:14;;;;;;;2.42;1.30;;;0.50;99.90;;;;;;5054827;28;20057;-71
2022/01/15 04:41:40;;;;;;;3.45;0.82;;;0.50;99.90;;;;;;5055454;28;20028;-70
2022/01/15 04:44:08;;;;;;;5.65;1.33;;;0.50;99.90;;;;;;5054933;28;20025;-70
2022/01/15 04:46:35;;;;;;;2.03;0.85;;;0.50;99.90;;;;;;5054972;28;20039;-71
2022/01/15 04:49:02;;;;;;;4.43;1.10;;;0.40;99.90;;;;;;5055160;28;20029;-71
2022/01/15 04:51:28;;;;;;;3.35;1.00;;;0.40;99.90;;;;;;5055272;28;20058;-71
2022/01/15 04:53:54;;;;;;;2.30;1.13;;;0.40;99.90;;;;;;5054730;28;20480;-71
2022/01/15 04:56:19;;;;;;;3.33;1.02;;;0.40;99.90;;;;;;5054972;28;20037;-71
2022/01/15 04:58:45;;;;;;;4.28;1.00;;;0.30;99.90;;;;;;5054880;28;20025;-70
2022/01/15 05:01:11;;;;;;;2.80;1.02;;;0.30;99.90;;;;;;5055121;28;20033;-71
2022/01/15 05:03:36;;;;;;;8.05;1.23;;;0.30;99.90;;;;;;5054606;28;20484;-71
2022/01/15 05:06:02;;;;;;;3.25;1.00;;;0.30;99.90;;;;;;5054851;28;20081;-71
2022/01/15 05:08:28;;;;;;;4.68;1.10;;;0.20;99.90;;;;;;5054786;28;20037;-71
2022/01/15 05:10:58;;;;;;;2.50;0.98;;;0.20;99.90;;;;;;5054472;28;20032;-71
2022/01/15 05:13:28;;;;;;;4.13;1.13;;;0.20;99.90;;;;;;5054846;28;20037;-71
2022/01/15 05:15:54;;;;;;;5.88;1.02;;;0.20;99.90;;;;;;5053654;28;20017;-71
2022/01/15 05:18:20;;;;;;;4.25;1.10;;;0.20;99.90;;;;;;5054345;28;20032;-71
2022/01/15 05:20:46;;;;;;;1.55;1.10;;;0.10;99.90;;;;;;5054254;28;20082;-71
2022/01/15 05:23:12;;;;;;;4.75;1.08;;;0.10;99.90;;;;;;5054293;28;20021;-71
2022/01/15 05:25:39;;;;;;;4.30;0.95;;;0.10;99.90;;;;;;5054590;28;20024;-71
2022/01/15 05:28:06;;;;;;;8.45;1.35;;;0.10;99.90;;;;;;5054037;28;20476;-70
2022/01/15 05:30:33;;;;;;;3.80;0.93;;;0.00;99.90;;;;;;5054232;28;20549;-73
2022/01/15 05:32:59;;;;;;;2.33;1.08;;;0.00;99.90;;;;;;5054123;28;20033;-71
2022/01/15 05:35:28;;;;;;;1.63;0.85;;;0.00;99.90;;;;;;5065993;28;20033;-71
2022/01/15 05:37:58;;;;;;;4.00;0.95;;;0.00;99.90;;;;;;5073835;28;20044;-70
2022/01/15 05:40:25;;;;;;;2.00;1.67;;;0.00;99.90;;;;;;5074056;28;20025;-71
2022/01/15 05:42:52;;;;;;;4.28;0.90;;;0.60;99.90;;;;;;5074046;28;20544;-72
2022/01/15 05:45:18;;;;;;;5.50;1.80;;;2.80;99.90;;;;;;5074023;28;20032;-76
2022/01/15 05:47:44;;;;;;;5.63;1.33;;;2.30;97.30;;;;;;5073795;28;20040;-70
2022/01/15 05:50:10;;;;;;;4.28;1.27;;;1.60;97.00;;;;;;5073394;28;20099;-72
2022/01/15 05:52:36;;;;;;;3.38;1.10;;;1.10;97.70;;;;;;5073382;28;20024;-72
2022/01/15 05:55:03;;;;;;;9.07;1.17;;;0.80;98.00;;;;;;5072943;28;20020;-70
2022/01/15 05:57:29;;;;;;;2.65;1.20;;;0.60;99.30;;;;;;5070552;28;20112;-71
2022/01/15 05:59:55;;;;;;;2.60;1.10;;;0.50;99.80;;;;;;5069721;28;20574;-71
2022/01/15 06:02:21;;;;;;;6.32;1.10;;;0.40;99.90;;;;;;5072810;28;20510;-71
2022/01/15 06:04:48;;;;;;;7.13;1.50;;;0.30;99.90;;;;;;5072538;28;20036;-71
2022/01/15 06:07:14;;;;;;;4.53;1.08;;;0.30;99.90;;;;;;5073483;28;20039;-71
2022/01/15 06:09:39;;;;;;;5.10;1.33;;;0.20;99.90;;;;;;5072780;28;20313;-71
2022/01/15 06:12:06;;;;;;;4.85;1.13;;;0.20;99.90;;;;;;5072614;28;20020;-71
2022/01/15 06:14:31;;;;;;;2.55;1.08;;;0.20;99.90;;;;;;5072548;28;20024;-71
2022/01/15 06:16:58;;;;;;;5.43;1.02;;;0.10;99.90;;;;;;5072869;28;20021;-72
2022/01/15 06:19:27;;;;;;;5.00;0.93;;;0.10;99.90;;;;;;5062188;28;20032;-71
2022/01/15 06:21:53;;;;;;;3.95;1.85;;;0.10;99.90;;;;;;5070959;28;20035;-72
2022/01/15 06:24:19;;;;;;;3.63;1.30;;;0.10;99.90;;;;;;5072747;28;20111;-71
2022/01/15 06:26:45;;;;;;;4.15;1.42;;;0.10;99.90;;;;;;5068706;28;20391;-71
2022/01/15 06:29:10;;;;;;;5.45;1.17;;;0.00;99.90;;;;;;5072909;28;20028;-72
2022/01/15 06:31:36;;;;;;;5.05;1.30;;;0.00;99.90;;;;;;5055129;28;20025;-72
2022/01/15 06:34:02;;;;;;;2.35;1.10;;;0.00;99.90;;;;;;5072661;28;20024;-72
2022/01/15 06:36:29;;;;;;;2.45;1.20;;;0.20;99.90;;;;;;5072908;28;20028;-71
2022/01/15 06:38:54;;;;;;;3.30;1.00;;;0.50;99.90;;;;;;5072436;28;20059;-71
2022/01/15 06:41:20;;;;;;;6.60;1.25;;;0.80;99.90;;;;;;5073105;28;20111;-71
2022/01/15 06:43:46;;;;;;;3.03;1.08;;;1.00;99.90;;;;;;5073072;28;20361;-71
2022/01/15 06:46:12;;;;;;;3.22;1.25;;;1.00;99.90;;;;;;5072812;28;20025;-71
2022/01/15 06:48:38;;;;;;;3.15;1.25;;;1.10;99.90;;;;;;5072674;28;20437;-71
2022/01/15 06:51:04;;;;;;;4.22;1.20;;;1.20;99.90;;;;;;5072958;28;20074;-71
2022/01/15 06:53:30;;;;;;;4.00;1.40;;;1.30;99.90;;;;;;5072553;28;20017;-71
2022/01/15 06:55:56;;;;;;;2.78;1.20;;;1.10;99.90;;;;;;5072563;28;20024;-72
2022/01/15 06:58:22;;;;;;;4.00;1.17;;;1.10;99.90;;;;;;5072534;28;20027;-71
2022/01/15 07:00:49;;;;;;;5.43;1.52;;;1.20;99.90;;;;;;5072468;28;20025;-72
2022/01/15 07:03:16;;;;;;;2.90;1.10;;;1.30;99.90;;;;;;5072750;28;20024;-72
2022/01/15 07:05:42;;;;;;;4.60;1.17;;;1.30;99.90;;;;;;5072758;28;20035;-73
2022/01/15 07:08:08;;;;;;;5.97;1.30;;;1.50;99.90;;;;;;5072489;28;20040;-73
2022/01/15 07:10:35;;;;;;;2.95;1.23;;;1.50;99.40;;;;;;5072442;28;20523;-77
2022/01/15 07:13:00;;;;;;;8.68;2.55;;;1.40;99.00;;;;;;5072335;28;20107;-75
2022/01/15 07:15:26;;;;;;;5.00;1.10;;;1.10;97.20;;;;;;5072370;28;20028;-74
2022/01/15 07:17:52;;;;;;;8.50;1.10;;;0.80;97.00;;;;;;5072405;28;20025;-79
2022/01/15 07:20:20;;;;;;;4.25;1.83;;;0.60;98.20;;;;;;5072188;28;20467;-79
2022/01/15 07:22:46;;;;;;;8.18;1.40;;;0.40;98.40;;;;;;5071995;28;20024;-72
2022/01/15 07:25:12;;;;;;;3.85;1.05;;;0.40;99.90;;;;;;5072235;28;20024;-74
2022/01/15 07:27:39;;;;;;;2.35;1.17;;;0.40;99.90;;;;;;5071980;28;20156;-74
2022/01/15 07:30:07;;;;;;;4.82;1.27;;;0.30;99.30;;;;;;5072165;28;20021;-70
2022/01/15 07:32:33;;;;;;;1.85;0.93;;;0.20;99.30;;;;;;5072122;28;20059;-67
2022/01/15 07:34:59;;;;;;;3.22;1.13;;;0.10;99.50;;;;;;5068647;28;20052;-66
2022/01/15 07:37:25;;;;;;;3.58;1.40;;;0.00;99.50;;;;;;5051087;28;20021;-68
2022/01/15 07:39:53;;;;;;;4.80;1.40;;;0.00;99.70;;;;;;5071177;28;20033;-67
2022/01/15 07:42:19;;;;;;;1.23;0.93;;;-0.10;99.60;;;;;;5071811;28;20112;-67
2022/01/15 07:44:45;;;;;;;4.68;1.13;;;-0.20;99.90;;;;;;5071397;28;20017;-68
2022/01/15 07:47:12;;;;;;;3.03;1.05;;;-0.20;99.90;;;;;;5070774;28;20091;-67
2022/01/15 07:49:39;;;;;;;5.80;1.10;;;-0.20;99.90;;;;;;5058849;28;20464;-67
2022/01/15 07:52:05;;;;;;;1.50;0.98;;;-0.20;99.90;;;;;;5066145;28;20039;-68
2022/01/15 07:54:30;;;;;;;4.20;1.10;;;-0.30;99.90;;;;;;5070530;28;20032;-68
2022/01/15 07:56:58;;;;;;;5.10;1.20;;;-0.10;99.90;;;;;;5071720;28;20028;-68
2022/01/15 07:59:25;;;;;;;3.90;1.60;;;0.40;99.90;;;;;;5071230;28;20025;-68
2022/01/15 08:01:51;;;;;;;4.43;1.65;;;0.60;99.90;;;;;;5071990;28;20107;-69
2022/01/15 08:04:17;;;;;;;5.28;1.70;;;0.70;99.90;;;;;;5062267;28;20082;-70
2022/01/15 08:06:43;;;;;;;4.28;1.35;;;0.50;99.90;;;;;;5056904;28;20029;-69
2022/01/15 08:09:08;;;;;;;3.58;1.35;;;0.20;99.90;;;;;;5069000;28;20029;-69
2022/01/15 08:11:35;;;;;;;6.13;1.35;;;0.00;99.90;;;;;;5071613;28;20483;-69
2022/01/15 08:14:01;;;;;;;7.47;1.52;;;0.00;99.90;;;;;;5071214;28;20497;-69
2022/01/15 08:16:27;;;;;;;2.83;1.00;;;-0.20;99.90;;;;;;5071844;28;20025;-67
2022/01/15 08:18:53;;;;;;;4.65;1.10;;;-0.20;99.90;;;;;;5071379;28;20375;-65
2022/01/15 08:21:19;;;;;;;5.35;1.38;;;-0.30;99.90;;;;;;5071519;28;20017;-65
2022/01/15 08:23:45;;;;;;;6.03;1.50;;;-0.30;99.90;;;;;;5071632;28;20032;-66
2022/01/15 08:26:11;;;;;;;1.55;0.90;;;-0.40;99.90;;;;;;5071448;28;20383;-69
2022/01/15 08:28:39;;;;;;;3.83;1.55;;;-0.40;99.90;;;;;;5071334;28;20032;-68
2022/01/15 08:31:06;;;;;;;3.47;1.20;;;-0.50;99.90;;;;;;5070893;28;20480;-71
2022/01/15 08:33:32;;;;;;;10.27;3.30;;;-0.50;99.90;;;;;;5053275;28;20090;-69
2022/01/15 08:35:58;;;;;;;4.25;1.58;;;-0.60;99.90;;;;;;5071018;28;20023;-69
2022/01/15 08:38:24;;;;;;;5.63;1.52;;;-0.50;99.90;;;;;;5070983;28;20045;-69
2022/01/15 08:40:50;;;;;;;1.67;1.10;;;-0.50;99.90;;;;;;5071221;28;20040;-68
2022/01/15 08:43:16;;;;;;;4.68;1.27;;;-0.50;99.90;;;;;;5068170;28;20123;-69
2022/01/15 08:45:43;;;;;;;4.88;1.65;;;-0.50;99.90;;;;;;5065220;28;20067;-70
2022/01/15 08:48:09;;;;;;;1.88;1.20;;;-0.60;99.90;;;;;;5071210;28;20036;-69
2022/01/15 08:50:36;;;;;;;4.88;1.30;;;-0.60;99.90;;;;;;5072399;28;20096;-67
2022/01/15 08:53:06;;;;;;;5.22;1.77;;;-0.60;99.90;;;;;;5056056;28;20020;-72
2022/01/15 08:55:35;;;;;;;7.15;2.13;;;-0.60;99.90;;;;;;5074063;28;20065;-70
2022/01/15 08:58:02;;;;;;;6.53;2.72;;;0.00;99.90;;;;;;5074364;28;20035;-72
2022/01/15 09:00:28;;;;;;;18.35;8.15;;;0.50;99.90;;;;;;5074069;28;20024;-72
2022/01/15 09:02:55;;;;;;;10.63;5.07;;;0.30;99.90;;;;;;5074537;28;20025;-68
2022/01/15 09:05:22;;;;;;;16.83;10.70;;;0.00;99.90;;;;;;5074363;28;20024;-67
2022/01/15 09:07:48;;;;;;;6.38;4.20;;;-0.10;99.90;;;;;;5074452;28;20399;-67
2022/01/15 09:10:14;;;;;;;8.38;2.38;;;-0.20;99.90;;;;;;5074306;28;20031;-67
2022/01/15 09:12:40;;;;;;;5.68;2.20;;;-0.20;99.90;;;;;;5074643;28;20159;-66
2022/01/15 09:15:07;;;;;;;5.80;2.47;;;-0.30;99.90;;;;;;5074407;28;20527;-68
2022/01/15 09:17:33;;;;;;;8.63;2.50;;;-0.30;99.90;;;;;;5074140;28;20024;-67
2022/01/15 09:19:59;;;;;;;5.10;2.10;;;0.80;99.90;;;;;;5074601;28;20036;-66
2022/01/15 09:22:25;;;;;;;3.28;1.35;;;1.00;99.90;;;;;;5074480;28;20368;-69
2022/01/15 09:24:51;;;;;;;4.30;1.48;;;1.10;99.90;;;;;;5055668;28;20150;-69
2022/01/15 09:30:13;;;;;;;4.15;1.27;;;0.60;99.90;;;;;;5074246;28;20028;-68
2022/01/15 09:32:51;;;;;;;3.95;1.23;;;0.40;99.90;;;;;;5074604;28;20029;-67
2022/01/15 09:35:20;;;;;;;3.38;1.48;;;0.20;99.90;;;;;;5056266;28;20766;-68
2022/01/15 09:37:52;;;;;;;2.53;1.10;;;0.30;99.90;;;;;;5074068;28;20044;-69
2022/01/15 09:40:20;;;;;;;3.25;1.52;;;0.20;99.90;;;;;;5067120;28;20120;-72
2022/01/15 09:42:47;;;;;;;3.80;1.50;;;0.20;99.90;;;;;;5054237;28;20021;-72
2022/01/15 09:45:14;;;;;;;6.65;1.52;;;0.20;99.90;;;;;;5053939;28;20021;-73
2022/01/15 09:47:41;;;;;;;4.78;1.33;;;0.10;99.90;;;;;;5054161;28;20037;-73
2022/01/15 09:50:13;;;;;;;2.08;1.25;;;0.10;99.90;;;;;;5054034;28;20423;-73
2022/01/15 09:52:39;;;;;;;6.63;1.50;;;0.10;99.90;;;;;;5054004;28;20033;-73
2022/01/15 09:55:10;;;;;;;4.63;1.17;;;0.10;99.90;;;;;;5053878;28;20112;-73
2022/01/15 09:57:38;;;;;;;5.85;1.30;;;0.10;99.90;;;;;;5036372;28;20035;-73
2022/01/15 10:00:10;;;;;;;3.63;1.30;;;0.00;99.90;;;;;;5053587;28;20384;-72
2022/01/15 10:02:39;;;;;;;3.70;1.23;;;0.00;99.90;;;;;;5058131;28;20075;-73
2022/01/15 10:05:05;;;;;;;4.03;1.42;;;0.00;99.90;;;;;;5073813;28;20017;-73
2022/01/15 10:07:31;;;;;;;4.78;1.30;;;0.00;99.90;;;;;;5073105;28;20399;-72
2022/01/15 10:10:14;;;;;;;2.53;1.08;;;0.00;99.90;;;;;;5070558;28;20028;-72
2022/01/15 10:12:43;;;;;;;2.88;1.23;;;0.00;99.90;;;;;;5062727;28;20031;-71
2022/01/15 10:15:09;;;;;;;4.07;1.27;;;0.00;99.90;;;;;;5063038;28;20013;-71
2022/01/15 10:17:37;;;;;;;7.90;1.48;;;0.00;99.90;;;;;;5062119;28;20025;-70
2022/01/15 10:20:10;;;;;;;3.00;1.30;;;0.00;99.90;;;;;;5055018;28;20510;-70
2022/01/15 10:22:42;;;;;;;3.55;1.05;;;0.00;99.90;;;;;;5054545;28;20021;-70
2022/01/15 10:25:18;;;;;;;3.10;1.10;;;0.00;99.90;;;;;;5053749;28;20028;-71
2022/01/15 10:27:47;;;;;;;5.43;1.30;;;0.00;99.90;;;;;;5053023;28;20404;-72
2022/01/15 10:30:27;;;;;;;4.43;1.20;;;0.00;99.90;;;;;;5063240;28;20024;-71
2022/01/15 10:33:06;;;;;;;5.97;1.20;;;0.00;99.90;;;;;;5063512;28;20434;-72
2022/01/15 10:35:35;;;;;;;5.57;2.17;;;0.00;99.90;;;;;;5072989;28;20024;-68
2022/01/15 10:38:18;;;;;;;38.17;18.30;;;0.10;99.90;;;;;;5072730;28;20047;-70
2022/01/15 10:40:55;;;;;;;31.63;13.88;;;0.10;99.90;;;;;;5073042;28;20036;-69
2022/01/15 10:43:30;;;;;;;160.73;60.97;;;0.10;99.90;;;;;;5062651;28;20044;-70
2022/01/15 10:45:58;;;;;;;24.45;11.38;;;0.10;99.90;;;;;;5060682;28;20112;-69
2022/01/15 10:48:32;;;;;;;8.80;5.80;;;0.40;99.90;;;;;;5052728;28;20090;-69
2022/01/15 10:51:10;;;;;;;5.28;2.30;;;0.40;99.90;;;;;;5052654;28;20025;-69
2022/01/15 10:53:46;;;;;;;4.63;1.70;;;0.30;99.90;;;;;;5053001;28;20029;-70
2022/01/15 10:56:15;;;;;;;5.03;2.50;;;0.20;99.90;;;;;;5060325;28;20103;-70
2022/01/15 10:58:44;;;;;;;4.53;1.33;;;0.10;99.90;;;;;;5068473;28;20158;-70
2022/01/15 11:01:26;;;;;;;3.50;1.35;;;0.00;99.90;;;;;;5069355;28;20081;-70
2022/01/15 11:03:52;;;;;;;4.32;1.20;;;-0.20;99.90;;;;;;5065021;28;20025;-69
2022/01/15 11:06:35;;;;;;;3.45;1.20;;;-0.30;99.90;;;;;;5063663;28;20379;-69
2022/01/15 11:09:01;;;;;;;3.10;1.10;;;-0.30;99.90;;;;;;5060385;28;20081;-69
2022/01/15 11:11:27;;;;;;;2.10;1.20;;;-0.40;99.90;;;;;;5040763;28;20112;-70
2022/01/15 11:13:53;;;;;;;4.05;1.23;;;-0.30;99.90;;;;;;5063605;28;20035;-70
2022/01/15 11:16:19;;;;;;;5.25;1.40;;;-0.40;99.90;;;;;;5052326;28;20468;-73
2022/01/15 11:18:56;;;;;;;4.80;1.15;;;-0.30;99.90;;;;;;5059665;28;20033;-72
2022/01/15 11:21:25;;;;;;;7.97;1.73;;;-0.30;99.90;;;;;;5072137;28;20025;-73
2022/01/15 11:23:51;;;;;;;3.53;1.40;;;-0.20;99.90;;;;;;5060148;28;20033;-73
2022/01/15 11:26:24;;;;;;;4.70;1.40;;;-0.20;99.90;;;;;;5057124;28;20036;-73
2022/01/15 11:28:50;;;;;;;4.10;1.25;;;-0.20;99.90;;;;;;5052263;28;20797;-73
2022/01/15 11:31:29;;;;;;;2.13;0.90;;;-0.20;99.90;;;;;;5034153;28;20024;-73
2022/01/15 11:33:58;;;;;;;6.95;1.30;;;-0.20;99.90;;;;;;5052103;28;20507;-72
2022/01/15 11:36:27;;;;;;;3.70;1.08;;;-0.20;99.90;;;;;;5052098;28;20021;-73
2022/01/15 11:38:53;;;;;;;4.45;1.38;;;-0.20;99.90;;;;;;5051687;28;20460;-73
2022/01/15 11:41:27;;;;;;;3.63;1.15;;;-0.20;99.90;;;;;;5051691;28;20025;-73
2022/01/15 11:44:08;;;;;;;4.63;1.52;;;-0.20;99.90;;;;;;5052172;28;20051;-73
2022/01/15 11:46:54;;;;;;;4.35;1.48;;;-0.20;99.90;;;;;;5052019;28;20534;-73
2022/01/15 11:49:29;;;;;;;5.60;1.45;;;-0.20;99.90;;;;;;5051548;28;20063;-73
2022/01/15 11:52:11;;;;;;;1.90;0.90;;;-0.20;99.90;;;;;;5051797;28;20105;-73
2022/01/15 11:54:39;;;;;;;2.72;1.40;;;-0.20;99.90;;;;;;5052006;28;20033;-73
2022/01/15 11:57:21;;;;;;;6.03;1.48;;;-0.20;99.90;;;;;;5051647;28;20112;-73
2022/01/15 11:59:50;;;;;;;7.45;1.30;;;-0.10;99.90;;;;;;5051899;28;20029;-72
2022/01/15 12:02:38;;;;;;;5.57;1.50;;;-0.10;99.90;;;;;;5068340;28;20032;-72
2022/01/15 12:05:16;;;;;;;3.20;1.17;;;0.00;99.90;;;;;;5057175;28;20488;-72
2022/01/15 12:07:47;;;;;;;4.20;1.20;;;-0.10;99.90;;;;;;5051482;28;20064;-72
2022/01/15 12:10:17;;;;;;;2.72;0.95;;;-0.10;99.90;;;;;;5051483;28;20025;-73
2022/01/15 12:12:51;;;;;;;5.85;1.52;;;-0.20;99.90;;;;;;5056770;28;20035;-72
2022/01/15 12:15:26;;;;;;;4.43;1.25;;;-0.20;99.90;;;;;;5071437;28;20021;-73
2022/01/15 12:18:00;;;;;;;3.45;1.27;;;-0.20;99.90;;;;;;5071684;28;20103;-72
2022/01/15 12:20:26;;;;;;;3.65;1.40;;;-0.20;99.90;;;;;;5064108;28;20060;-73
2022/01/15 12:23:03;;;;;;;5.05;1.30;;;-0.20;99.90;;;;;;5051609;28;20504;-73
2022/01/15 12:25:36;;;;;;;4.25;1.40;;;-0.20;99.90;;;;;;5055451;28;20048;-72
2022/01/15 12:28:13;;;;;;;4.03;1.40;;;-0.20;99.90;;;;;;5056016;28;20037;-73
2022/01/15 12:30:50;;;;;;;2.53;1.00;;;-0.30;99.90;;;;;;5066342;28;20103;-73
2022/01/15 12:33:17;;;;;;;3.75;1.13;;;-0.30;99.90;;;;;;5075423;28;20025;-72
2022/01/15 12:35:54;;;;;;;4.10;1.20;;;-0.40;99.90;;;;;;5075627;28;20021;-74
2022/01/15 12:38:29;;;;;;;4.20;1.40;;;-0.30;99.90;;;;;;5075011;28;20043;-72
2022/01/15 12:41:04;;;;;;;5.40;1.30;;;0.00;99.90;;;;;;5075256;28;20028;-72
2022/01/15 12:43:38;;;;;;;6.80;1.30;;;-0.10;99.90;;;;;;5075074;28;20035;-72
2022/01/15 12:46:11;;;;;;;4.43;1.20;;;-0.20;99.90;;;;;;5075089;28;20028;-72
2022/01/15 12:48:39;;;;;;;4.38;1.35;;;-0.30;99.90;;;;;;5075322;28;20041;-72
2022/01/15 12:51:08;;;;;;;2.28;1.00;;;-0.30;99.90;;;;;;5075189;28;20021;-72
2022/01/15 12:53:42;;;;;;;3.80;1.10;;;-0.40;99.90;;;;;;5074989;28;20387;-72
2022/01/15 12:56:12;;;;;;;2.85;0.90;;;-0.40;99.90;;;;;;5075070;28;20107;-72
2022/01/15 12:58:39;;;;;;;3.70;1.30;;;-0.40;99.90;;;;;;5075153;28;20153;-72
2022/01/15 13:01:06;;;;;;;3.13;1.25;;;-0.40;99.90;;;;;;5075048;28;20356;-72
2022/01/15 13:03:37;;;;;;;2.72;1.25;;;-0.30;99.90;;;;;;5074637;28;20074;-72
2022/01/15 13:06:04;;;;;;;5.97;1.27;;;-0.30;99.90;;;;;;5074781;28;20017;-72
2022/01/15 13:08:37;;;;;;;2.55;1.02;;;-0.30;99.90;;;;;;5053210;28;20120;-68
2022/01/15 13:11:19;;;;;;;1.73;1.00;;;-0.20;99.90;;;;;;5071884;28;20021;-73
2022/01/15 13:14:07;;;;;;;3.60;1.00;;;-0.20;99.90;;;;;;5074706;28;20020;-72
2022/01/15 13:16:33;;;;;;;1.35;0.98;;;-0.20;99.90;;;;;;5074893;28;20036;-72
2022/01/15 13:19:06;;;;;;;4.60;1.42;;;-0.30;99.90;;;;;;5071766;28;20108;-73
2022/01/15 13:21:37;;;;;;;1.83;1.00;;;-0.20;99.90;;;;;;5058261;28;20078;-73
2022/01/15 13:24:08;;;;;;;1.73;1.05;;;-0.30;99.90;;;;;;5069284;28;20031;-71
2022/01/15 13:26:35;;;;;;;1.55;1.08;;;-0.30;99.90;;;;;;5063745;28;20099;-72
2022/01/15 13:29:14;;;;;;;4.97;1.13;;;-0.30;99.90;;;;;;5054308;28;20041;-72
2022/01/15 13:31:41;;;;;;;3.95;1.90;;;-0.30;99.90;;;;;;5054574;28;20040;-71
2022/01/15 13:34:08;;;;;;;2.88;1.20;;;-0.40;99.90;;;;;;5059098;28;20035;-72
2022/01/15 13:36:34;;;;;;;4.38;1.35;;;-0.30;99.90;;;;;;5073821;28;20031;-71
2022/01/15 13:39:01;;;;;;;2.78;0.98;;;-0.30;99.90;;;;;;5074046;28;20462;-72
2022/01/15 13:41:32;;;;;;;3.05;1.20;;;-0.30;99.90;;;;;;5074397;28;20072;-72
2022/01/15 13:44:05;;;;;;;3.65;1.05;;;-0.30;99.90;;;;;;5068541;28;20032;-72
2022/01/15 13:46:34;;;;;;;4.38;1.10;;;-0.30;99.90;;;;;;5056408;28;20086;-73
2022/01/15 13:49:06;;;;;;;1.58;0.98;;;-0.20;99.90;;;;;;5068549;28;20047;-73
2022/01/15 13:54:36;;;;;;;3.25;1.13;;;-0.20;99.90;;;;;;5074168;28;20086;-73
2022/01/15 13:57:13;;;;;;;3.67;1.33;;;-0.20;99.90;;;;;;5073645;28;20025;-73
2022/01/15 13:59:40;;;;;;;3.03;1.30;;;-0.20;99.90;;;;;;5073856;28;20100;-73
2022/01/15 14:02:06;;;;;;;1.88;1.27;;;-0.20;99.90;;;;;;5073924;28;20035;-70
2022/01/15 14:04:39;;;;;;;6.28;1.38;;;-0.20;99.90;;;;;;5073864;28;20447;-69
2022/01/15 14:07:11;;;;;;;3.47;1.00;;;-0.20;99.90;;;;;;5073499;28;20427;-69
2022/01/15 14:09:39;;;;;;;2.20;1.20;;;-0.10;99.90;;;;;;5073602;28;20025;-68
2022/01/15 14:12:09;;;;;;;2.30;1.10;;;-0.10;99.90;;;;;;5073451;28;20058;-69
2022/01/15 14:15:03;;;;;;;4.25;1.30;;;-0.10;99.90;;;;;;5073385;28;20483;-69
2022/01/15 14:17:30;;;;;;;4.13;1.30;;;-0.10;99.90;;;;;;5073303;28;20032;-69
2022/01/15 14:22:25;;;;;;;3.83;1.48;;;-0.10;99.90;;;;;;5073575;28;20021;-68
2022/01/15 14:24:53;;;;;;;4.80;1.20;;;-0.10;99.90;;;;;;5073659;28;20020;-74
2022/01/15 14:27:28;;;;;;;4.13;1.10;;;-0.10;99.90;;;;;;5073011;28;20040;-75
2022/01/15 14:29:55;;;;;;;3.85;1.30;;;0.20;99.90;;;;;;5073537;28;20456;-69
2022/01/15 14:32:22;;;;;;;2.97;1.45;;;0.30;99.90;;;;;;5073060;28;20498;-69